sensor_id;sensor_type;location;lat;lon;timestamp;P1;durP1;ratioP1;P2;durP2;ratioP2
39486;SDS011;25173;50.430;18.926;2023-02-08T00:02:04;77.40;;;44.67;;
39486;SDS011;25173;50.430;18.926;2023-02-08T00:05:04;81.28;;;44.35;;
39486;SDS011;25173;50.430;18.926;2023-02-08T00:08:05;72.82;;;41.22;;
39486;SDS011;25173;50.430;18.926;2023-02-08T00:11:07;65.75;;;38.15;;
39486;SDS011;25173;50.430;18.926;2023-02-08T00:14:09;62.15;;;37.45;;
39486;SDS011;25173;50.430;18.926;2023-02-08T00:17:10;61.95;;;36.83;;
39486;SDS011;25173;50.430;18.926;2023-02-08T00:20:11;58.22;;;35.70;;
39486;SDS011;25173;50.430;18.926;2023-02-08T00:23:12;59.58;;;33.72;;
39486;SDS011;25173;50.430;18.926;2023-02-08T00:26:14;59.35;;;34.67;;
39486;SDS011;25173;50.430;18.926;2023-02-08T00:29:16;55.25;;;33.30;;
39486;SDS011;25173;50.430;18.926;2023-02-08T00:32:17;69.72;;;40.17;;
39486;SDS011;25173;50.430;18.926;2023-02-08T00:35:17;72.57;;;40.17;;
39486;SDS011;25173;50.430;18.926;2023-02-08T00:38:18;65.88;;;39.25;;
39486;SDS011;25173;50.430;18.926;2023-02-08T00:41:19;59.42;;;36.15;;
39486;SDS011;25173;50.430;18.926;2023-02-08T00:44:21;64.18;;;37.55;;
39486;SDS011;25173;50.430;18.926;2023-02-08T00:47:21;62.67;;;36.17;;
39486;SDS011;25173;50.430;18.926;2023-02-08T00:50:22;65.97;;;38.35;;
39486;SDS011;25173;50.430;18.926;2023-02-08T00:53:23;66.18;;;37.85;;
39486;SDS011;25173;50.430;18.926;2023-02-08T00:56:24;60.25;;;34.20;;
39486;SDS011;25173;50.430;18.926;2023-02-08T00:59:25;67.50;;;38.45;;
39486;SDS011;25173;50.430;18.926;2023-02-08T01:02:27;67.65;;;36.78;;
39486;SDS011;25173;50.430;18.926;2023-02-08T01:05:28;61.13;;;35.88;;
39486;SDS011;25173;50.430;18.926;2023-02-08T01:08:28;61.20;;;32.85;;
39486;SDS011;25173;50.430;18.926;2023-02-08T01:11:29;52.38;;;33.28;;
39486;SDS011;25173;50.430;18.926;2023-02-08T01:14:30;54.05;;;32.15;;
39486;SDS011;25173;50.430;18.926;2023-02-08T01:17:32;57.05;;;31.05;;
39486;SDS011;25173;50.430;18.926;2023-02-08T01:20:33;51.92;;;30.85;;
39486;SDS011;25173;50.430;18.926;2023-02-08T01:23:37;56.92;;;34.08;;
39486;SDS011;25173;50.430;18.926;2023-02-08T01:26:38;54.10;;;31.73;;
39486;SDS011;25173;50.430;18.926;2023-02-08T01:29:39;52.45;;;30.55;;
39486;SDS011;25173;50.430;18.926;2023-02-08T01:32:40;58.47;;;31.35;;
39486;SDS011;25173;50.430;18.926;2023-02-08T01:35:40;55.45;;;31.60;;
39486;SDS011;25173;50.430;18.926;2023-02-08T01:38:41;56.90;;;30.17;;
39486;SDS011;25173;50.430;18.926;2023-02-08T01:41:43;50.08;;;30.25;;
39486;SDS011;25173;50.430;18.926;2023-02-08T01:48:26;49.42;;;30.20;;
39486;SDS011;25173;50.430;18.926;2023-02-08T01:51:34;54.00;;;32.05;;
39486;SDS011;25173;50.430;18.926;2023-02-08T01:54:58;51.15;;;31.15;;
39486;SDS011;25173;50.430;18.926;2023-02-08T01:58:03;56.90;;;33.00;;
39486;SDS011;25173;50.430;18.926;2023-02-08T02:01:08;61.08;;;35.65;;
39486;SDS011;25173;50.430;18.926;2023-02-08T02:04:10;59.38;;;33.33;;
39486;SDS011;25173;50.430;18.926;2023-02-08T02:07:11;66.53;;;35.40;;
39486;SDS011;25173;50.430;18.926;2023-02-08T02:10:15;64.22;;;35.17;;
39486;SDS011;25173;50.430;18.926;2023-02-08T02:13:21;60.90;;;36.47;;
39486;SDS011;25173;50.430;18.926;2023-02-08T02:16:24;60.17;;;35.70;;
39486;SDS011;25173;50.430;18.926;2023-02-08T02:19:39;62.13;;;37.13;;
39486;SDS011;25173;50.430;18.926;2023-02-08T02:23:00;63.45;;;35.58;;
39486;SDS011;25173;50.430;18.926;2023-02-08T02:26:30;75.50;;;38.20;;
39486;SDS011;25173;50.430;18.926;2023-02-08T02:33:13;59.55;;;34.88;;
39486;SDS011;25173;50.430;18.926;2023-02-08T02:40:40;54.90;;;32.13;;
39486;SDS011;25173;50.430;18.926;2023-02-08T02:43:38;55.45;;;33.45;;
39486;SDS011;25173;50.430;18.926;2023-02-08T02:46:46;56.75;;;32.08;;
39486;SDS011;25173;50.430;18.926;2023-02-08T02:50:15;58.40;;;34.47;;
39486;SDS011;25173;50.430;18.926;2023-02-08T02:53:33;59.05;;;31.67;;
39486;SDS011;25173;50.430;18.926;2023-02-08T02:56:43;54.92;;;32.15;;
39486;SDS011;25173;50.430;18.926;2023-02-08T02:59:48;51.73;;;31.53;;
39486;SDS011;25173;50.430;18.926;2023-02-08T03:02:48;60.28;;;32.65;;
39486;SDS011;25173;50.430;18.926;2023-02-08T03:05:49;52.53;;;31.98;;
39486;SDS011;25173;50.430;18.926;2023-02-08T03:21:50;53.03;;;32.03;;
39486;SDS011;25173;50.430;18.926;2023-02-08T03:25:04;49.90;;;30.33;;
39486;SDS011;25173;50.430;18.926;2023-02-08T03:28:25;57.30;;;32.38;;
39486;SDS011;25173;50.430;18.926;2023-02-08T03:31:43;49.55;;;31.80;;
39486;SDS011;25173;50.430;18.926;2023-02-08T03:35:00;50.17;;;29.58;;
39486;SDS011;25173;50.430;18.926;2023-02-08T03:38:06;48.95;;;30.40;;
39486;SDS011;25173;50.430;18.926;2023-02-08T03:41:11;51.72;;;30.02;;
39486;SDS011;25173;50.430;18.926;2023-02-08T03:47:21;53.85;;;29.70;;
39486;SDS011;25173;50.430;18.926;2023-02-08T03:50:24;56.67;;;32.53;;
39486;SDS011;25173;50.430;18.926;2023-02-08T03:53:27;54.28;;;30.98;;
39486;SDS011;25173;50.430;18.926;2023-02-08T03:56:39;53.72;;;32.72;;
39486;SDS011;25173;50.430;18.926;2023-02-08T03:59:46;54.05;;;30.17;;
39486;SDS011;25173;50.430;18.926;2023-02-08T04:02:54;56.90;;;33.13;;
39486;SDS011;25173;50.430;18.926;2023-02-08T04:06:00;54.15;;;31.65;;
39486;SDS011;25173;50.430;18.926;2023-02-08T04:09:01;50.38;;;29.75;;
39486;SDS011;25173;50.430;18.926;2023-02-08T04:12:01;47.17;;;28.98;;
39486;SDS011;25173;50.430;18.926;2023-02-08T04:15:02;49.22;;;29.42;;
39486;SDS011;25173;50.430;18.926;2023-02-08T04:18:03;53.10;;;30.85;;
39486;SDS011;25173;50.430;18.926;2023-02-08T04:21:04;54.55;;;30.48;;
39486;SDS011;25173;50.430;18.926;2023-02-08T04:24:05;52.13;;;29.60;;
39486;SDS011;25173;50.430;18.926;2023-02-08T04:27:05;51.95;;;28.75;;
39486;SDS011;25173;50.430;18.926;2023-02-08T04:30:06;55.75;;;31.77;;
39486;SDS011;25173;50.430;18.926;2023-02-08T04:33:07;59.75;;;33.22;;
39486;SDS011;25173;50.430;18.926;2023-02-08T04:36:08;55.08;;;31.10;;
39486;SDS011;25173;50.430;18.926;2023-02-08T04:39:08;47.40;;;28.50;;
39486;SDS011;25173;50.430;18.926;2023-02-08T04:42:09;48.30;;;28.10;;
39486;SDS011;25173;50.430;18.926;2023-02-08T04:45:09;47.97;;;26.95;;
39486;SDS011;25173;50.430;18.926;2023-02-08T04:48:10;47.42;;;28.33;;
39486;SDS011;25173;50.430;18.926;2023-02-08T04:51:11;51.28;;;27.27;;
39486;SDS011;25173;50.430;18.926;2023-02-08T04:54:11;44.72;;;26.60;;
39486;SDS011;25173;50.430;18.926;2023-02-08T04:57:12;49.97;;;28.55;;
39486;SDS011;25173;50.430;18.926;2023-02-08T05:00:13;47.10;;;27.73;;
39486;SDS011;25173;50.430;18.926;2023-02-08T05:03:14;45.35;;;26.55;;
39486;SDS011;25173;50.430;18.926;2023-02-08T05:06:14;55.90;;;29.98;;
39486;SDS011;25173;50.430;18.926;2023-02-08T05:09:15;55.58;;;30.00;;
39486;SDS011;25173;50.430;18.926;2023-02-08T05:12:16;53.15;;;29.65;;
39486;SDS011;25173;50.430;18.926;2023-02-08T05:15:16;50.38;;;28.98;;
39486;SDS011;25173;50.430;18.926;2023-02-08T05:18:17;48.47;;;28.33;;
39486;SDS011;25173;50.430;18.926;2023-02-08T05:21:17;45.03;;;26.90;;
39486;SDS011;25173;50.430;18.926;2023-02-08T05:24:18;51.55;;;26.73;;
39486;SDS011;25173;50.430;18.926;2023-02-08T05:27:19;47.17;;;27.55;;
39486;SDS011;25173;50.430;18.926;2023-02-08T05:30:20;53.70;;;28.85;;
39486;SDS011;25173;50.430;18.926;2023-02-08T05:33:20;54.33;;;27.00;;
39486;SDS011;25173;50.430;18.926;2023-02-08T05:36:21;45.95;;;26.00;;
39486;SDS011;25173;50.430;18.926;2023-02-08T05:39:22;46.95;;;24.00;;
39486;SDS011;25173;50.430;18.926;2023-02-08T05:42:23;42.63;;;24.48;;
39486;SDS011;25173;50.430;18.926;2023-02-08T05:45:24;43.22;;;25.20;;
39486;SDS011;25173;50.430;18.926;2023-02-08T05:48:24;47.90;;;26.35;;
39486;SDS011;25173;50.430;18.926;2023-02-08T05:51:25;46.33;;;26.35;;
39486;SDS011;25173;50.430;18.926;2023-02-08T05:54:26;53.80;;;28.02;;
39486;SDS011;25173;50.430;18.926;2023-02-08T05:57:26;45.97;;;26.20;;
39486;SDS011;25173;50.430;18.926;2023-02-08T06:00:27;44.20;;;26.95;;
39486;SDS011;25173;50.430;18.926;2023-02-08T06:03:27;41.83;;;24.90;;
39486;SDS011;25173;50.430;18.926;2023-02-08T06:06:28;42.05;;;25.58;;
39486;SDS011;25173;50.430;18.926;2023-02-08T06:09:28;43.15;;;23.35;;
39486;SDS011;25173;50.430;18.926;2023-02-08T06:12:29;40.95;;;24.52;;
39486;SDS011;25173;50.430;18.926;2023-02-08T06:15:30;46.85;;;27.38;;
39486;SDS011;25173;50.430;18.926;2023-02-08T06:18:30;42.55;;;24.88;;
39486;SDS011;25173;50.430;18.926;2023-02-08T06:21:31;40.97;;;25.02;;
39486;SDS011;25173;50.430;18.926;2023-02-08T06:24:32;39.83;;;24.10;;
39486;SDS011;25173;50.430;18.926;2023-02-08T06:27:32;40.08;;;23.20;;
39486;SDS011;25173;50.430;18.926;2023-02-08T06:30:33;51.13;;;27.23;;
39486;SDS011;25173;50.430;18.926;2023-02-08T06:33:33;172.23;;;84.65;;
39486;SDS011;25173;50.430;18.926;2023-02-08T06:36:34;183.80;;;90.07;;
39486;SDS011;25173;50.430;18.926;2023-02-08T06:39:35;57.08;;;38.30;;
39486;SDS011;25173;50.430;18.926;2023-02-08T06:42:35;45.67;;;28.48;;
39486;SDS011;25173;50.430;18.926;2023-02-08T06:45:36;49.30;;;32.92;;
39486;SDS011;25173;50.430;18.926;2023-02-08T06:48:36;53.95;;;38.65;;
39486;SDS011;25173;50.430;18.926;2023-02-08T06:51:38;44.80;;;27.25;;
39486;SDS011;25173;50.430;18.926;2023-02-08T06:54:38;103.03;;;92.03;;
39486;SDS011;25173;50.430;18.926;2023-02-08T06:57:39;71.20;;;53.10;;
39486;SDS011;25173;50.430;18.926;2023-02-08T07:00:39;114.65;;;102.43;;
39486;SDS011;25173;50.430;18.926;2023-02-08T07:03:40;45.10;;;28.13;;
39486;SDS011;25173;50.430;18.926;2023-02-08T07:06:41;53.88;;;32.28;;
39486;SDS011;25173;50.430;18.926;2023-02-08T07:09:41;45.72;;;28.95;;
39486;SDS011;25173;50.430;18.926;2023-02-08T07:12:42;43.58;;;26.90;;
39486;SDS011;25173;50.430;18.926;2023-02-08T07:15:43;44.55;;;27.35;;
39486;SDS011;25173;50.430;18.926;2023-02-08T07:18:44;49.28;;;31.70;;
39486;SDS011;25173;50.430;18.926;2023-02-08T07:21:45;47.72;;;30.20;;
39486;SDS011;25173;50.430;18.926;2023-02-08T07:24:46;57.40;;;34.28;;
39486;SDS011;25173;50.430;18.926;2023-02-08T07:27:46;55.83;;;35.22;;
39486;SDS011;25173;50.430;18.926;2023-02-08T07:30:47;49.35;;;32.17;;
39486;SDS011;25173;50.430;18.926;2023-02-08T07:33:47;52.20;;;32.05;;
39486;SDS011;25173;50.430;18.926;2023-02-08T07:36:49;53.13;;;31.90;;
39486;SDS011;25173;50.430;18.926;2023-02-08T07:39:49;48.60;;;29.73;;
39486;SDS011;25173;50.430;18.926;2023-02-08T07:42:50;50.08;;;32.42;;
39486;SDS011;25173;50.430;18.926;2023-02-08T07:46:08;61.97;;;36.42;;
39486;SDS011;25173;50.430;18.926;2023-02-08T07:49:13;54.05;;;32.22;;
39486;SDS011;25173;50.430;18.926;2023-02-08T07:52:14;58.45;;;34.80;;
39486;SDS011;25173;50.430;18.926;2023-02-08T07:55:15;46.15;;;28.63;;
39486;SDS011;25173;50.430;18.926;2023-02-08T07:58:19;43.03;;;27.75;;
39486;SDS011;25173;50.430;18.926;2023-02-08T08:01:20;49.67;;;30.90;;
39486;SDS011;25173;50.430;18.926;2023-02-08T08:04:20;43.13;;;26.67;;
39486;SDS011;25173;50.430;18.926;2023-02-08T08:07:21;43.95;;;27.58;;
39486;SDS011;25173;50.430;18.926;2023-02-08T08:10:22;47.25;;;27.77;;
39486;SDS011;25173;50.430;18.926;2023-02-08T08:13:22;45.13;;;29.42;;
39486;SDS011;25173;50.430;18.926;2023-02-08T08:16:23;42.17;;;28.13;;
39486;SDS011;25173;50.430;18.926;2023-02-08T08:19:23;45.03;;;28.05;;
39486;SDS011;25173;50.430;18.926;2023-02-08T08:22:24;44.70;;;26.60;;
39486;SDS011;25173;50.430;18.926;2023-02-08T08:25:25;40.90;;;26.40;;
39486;SDS011;25173;50.430;18.926;2023-02-08T08:28:26;42.67;;;27.05;;
39486;SDS011;25173;50.430;18.926;2023-02-08T08:31:27;42.47;;;27.60;;
39486;SDS011;25173;50.430;18.926;2023-02-08T08:34:30;44.13;;;28.70;;
39486;SDS011;25173;50.430;18.926;2023-02-08T08:37:31;43.00;;;26.85;;
39486;SDS011;25173;50.430;18.926;2023-02-08T08:40:32;41.72;;;25.75;;
39486;SDS011;25173;50.430;18.926;2023-02-08T08:43:33;35.33;;;21.38;;
39486;SDS011;25173;50.430;18.926;2023-02-08T08:46:33;31.77;;;20.92;;
39486;SDS011;25173;50.430;18.926;2023-02-08T08:49:34;32.13;;;19.90;;
39486;SDS011;25173;50.430;18.926;2023-02-08T08:52:34;27.02;;;18.23;;
39486;SDS011;25173;50.430;18.926;2023-02-08T08:55:35;29.67;;;18.92;;
39486;SDS011;25173;50.430;18.926;2023-02-08T08:58:36;34.55;;;22.50;;
39486;SDS011;25173;50.430;18.926;2023-02-08T09:01:36;35.50;;;23.80;;
39486;SDS011;25173;50.430;18.926;2023-02-08T09:04:38;22.33;;;14.68;;
39486;SDS011;25173;50.430;18.926;2023-02-08T09:07:40;24.45;;;15.98;;
39486;SDS011;25173;50.430;18.926;2023-02-08T09:10:41;30.75;;;21.40;;
39486;SDS011;25173;50.430;18.926;2023-02-08T09:13:41;23.08;;;15.55;;
39486;SDS011;25173;50.430;18.926;2023-02-08T09:16:42;24.17;;;14.73;;
39486;SDS011;25173;50.430;18.926;2023-02-08T09:19:47;23.67;;;13.47;;
39486;SDS011;25173;50.430;18.926;2023-02-08T09:22:48;24.67;;;14.55;;
39486;SDS011;25173;50.430;18.926;2023-02-08T09:25:48;25.98;;;14.10;;
39486;SDS011;25173;50.430;18.926;2023-02-08T09:28:49;25.08;;;13.98;;
39486;SDS011;25173;50.430;18.926;2023-02-08T09:31:50;22.30;;;12.77;;
39486;SDS011;25173;50.430;18.926;2023-02-08T09:34:50;31.00;;;15.27;;
39486;SDS011;25173;50.430;18.926;2023-02-08T09:37:52;24.38;;;13.70;;
39486;SDS011;25173;50.430;18.926;2023-02-08T09:44:12;20.85;;;12.27;;
39486;SDS011;25173;50.430;18.926;2023-02-08T09:47:21;23.33;;;12.98;;
39486;SDS011;25173;50.430;18.926;2023-02-08T09:50:37;24.67;;;14.25;;
39486;SDS011;25173;50.430;18.926;2023-02-08T09:53:47;22.63;;;11.93;;
39486;SDS011;25173;50.430;18.926;2023-02-08T09:56:52;13.45;;;9.32;;
39486;SDS011;25173;50.430;18.926;2023-02-08T09:59:54;13.55;;;8.52;;
39486;SDS011;25173;50.430;18.926;2023-02-08T10:06:02;24.65;;;16.20;;
39486;SDS011;25173;50.430;18.926;2023-02-08T10:09:05;22.40;;;13.20;;
39486;SDS011;25173;50.430;18.926;2023-02-08T10:12:22;20.15;;;9.52;;
39486;SDS011;25173;50.430;18.926;2023-02-08T10:15:52;17.00;;;8.75;;
39486;SDS011;25173;50.430;18.926;2023-02-08T10:28:34;27.08;;;14.80;;
39486;SDS011;25173;50.430;18.926;2023-02-08T10:31:55;24.35;;;11.90;;
39486;SDS011;25173;50.430;18.926;2023-02-08T10:35:14;17.27;;;9.95;;
39486;SDS011;25173;50.430;18.926;2023-02-08T10:38:24;13.20;;;7.95;;
39486;SDS011;25173;50.430;18.926;2023-02-08T10:41:33;18.27;;;12.43;;
39486;SDS011;25173;50.430;18.926;2023-02-08T10:44:40;23.92;;;10.13;;
39486;SDS011;25173;50.430;18.926;2023-02-08T10:47:54;13.55;;;7.75;;
39486;SDS011;25173;50.430;18.926;2023-02-08T10:50:57;15.18;;;8.77;;
39486;SDS011;25173;50.430;18.926;2023-02-08T10:53:58;14.48;;;7.35;;
39486;SDS011;25173;50.430;18.926;2023-02-08T10:56:59;17.45;;;9.27;;
39486;SDS011;25173;50.430;18.926;2023-02-08T11:00:04;13.30;;;7.72;;
39486;SDS011;25173;50.430;18.926;2023-02-08T11:03:22;14.05;;;7.47;;
39486;SDS011;25173;50.430;18.926;2023-02-08T11:06:25;10.45;;;6.70;;
39486;SDS011;25173;50.430;18.926;2023-02-08T11:09:32;13.43;;;7.88;;
39486;SDS011;25173;50.430;18.926;2023-02-08T11:16:34;9.68;;;5.38;;
39486;SDS011;25173;50.430;18.926;2023-02-08T11:19:55;8.50;;;4.97;;
39486;SDS011;25173;50.430;18.926;2023-02-08T11:22:58;12.23;;;6.80;;
39486;SDS011;25173;50.430;18.926;2023-02-08T11:36:18;12.55;;;8.27;;
39486;SDS011;25173;50.430;18.926;2023-02-08T11:39:27;15.70;;;7.60;;
39486;SDS011;25173;50.430;18.926;2023-02-08T11:42:34;19.25;;;9.85;;
39486;SDS011;25173;50.430;18.926;2023-02-08T11:45:37;15.07;;;9.70;;
39486;SDS011;25173;50.430;18.926;2023-02-08T11:48:59;15.13;;;9.05;;
39486;SDS011;25173;50.430;18.926;2023-02-08T11:51:59;13.15;;;8.20;;
39486;SDS011;25173;50.430;18.926;2023-02-08T11:58:19;15.25;;;8.82;;
39486;SDS011;25173;50.430;18.926;2023-02-08T12:04:30;17.65;;;10.65;;
39486;SDS011;25173;50.430;18.926;2023-02-08T12:10:58;23.10;;;11.85;;
39486;SDS011;25173;50.430;18.926;2023-02-08T12:14:22;16.25;;;10.13;;
39486;SDS011;25173;50.430;18.926;2023-02-08T12:27:42;14.45;;;9.70;;
39486;SDS011;25173;50.430;18.926;2023-02-08T12:30:44;17.27;;;9.27;;
39486;SDS011;25173;50.430;18.926;2023-02-08T12:34:07;15.43;;;9.73;;
39486;SDS011;25173;50.430;18.926;2023-02-08T12:37:17;14.35;;;9.55;;
39486;SDS011;25173;50.430;18.926;2023-02-08T12:40:55;14.52;;;8.85;;
39486;SDS011;25173;50.430;18.926;2023-02-08T12:44:10;18.13;;;9.20;;
39486;SDS011;25173;50.430;18.926;2023-02-08T12:54:17;17.38;;;9.88;;
39486;SDS011;25173;50.430;18.926;2023-02-08T12:57:41;16.05;;;9.38;;
39486;SDS011;25173;50.430;18.926;2023-02-08T13:00:44;14.32;;;9.73;;
39486;SDS011;25173;50.430;18.926;2023-02-08T13:03:55;16.13;;;9.93;;
39486;SDS011;25173;50.430;18.926;2023-02-08T13:06:57;19.40;;;10.43;;
39486;SDS011;25173;50.430;18.926;2023-02-08T13:10:04;16.48;;;10.25;;
39486;SDS011;25173;50.430;18.926;2023-02-08T13:13:29;19.25;;;11.00;;
39486;SDS011;25173;50.430;18.926;2023-02-08T13:16:34;19.73;;;11.32;;
39486;SDS011;25173;50.430;18.926;2023-02-08T13:19:49;19.95;;;12.10;;
39486;SDS011;25173;50.430;18.926;2023-02-08T13:23:02;25.88;;;15.35;;
39486;SDS011;25173;50.430;18.926;2023-02-08T13:26:29;18.98;;;11.40;;
39486;SDS011;25173;50.430;18.926;2023-02-08T13:29:36;21.15;;;11.65;;
39486;SDS011;25173;50.430;18.926;2023-02-08T13:32:39;20.15;;;12.82;;
39486;SDS011;25173;50.430;18.926;2023-02-08T13:35:48;17.70;;;11.50;;
39486;SDS011;25173;50.430;18.926;2023-02-08T13:38:50;18.63;;;12.57;;
39486;SDS011;25173;50.430;18.926;2023-02-08T13:41:53;21.08;;;12.52;;
39486;SDS011;25173;50.430;18.926;2023-02-08T13:44:55;22.35;;;12.77;;
39486;SDS011;25173;50.430;18.926;2023-02-08T13:48:03;19.95;;;11.70;;
39486;SDS011;25173;50.430;18.926;2023-02-08T13:51:05;17.67;;;11.60;;
39486;SDS011;25173;50.430;18.926;2023-02-08T13:54:11;19.23;;;12.43;;
39486;SDS011;25173;50.430;18.926;2023-02-08T14:07:23;19.42;;;11.90;;
39486;SDS011;25173;50.430;18.926;2023-02-08T14:10:40;18.60;;;12.07;;
39486;SDS011;25173;50.430;18.926;2023-02-08T14:20:36;27.67;;;16.15;;
39486;SDS011;25173;50.430;18.926;2023-02-08T14:23:40;28.08;;;13.80;;
39486;SDS011;25173;50.430;18.926;2023-02-08T14:26:41;24.20;;;14.57;;
39486;SDS011;25173;50.430;18.926;2023-02-08T14:29:42;21.73;;;13.63;;
39486;SDS011;25173;50.430;18.926;2023-02-08T14:32:47;23.67;;;14.50;;
39486;SDS011;25173;50.430;18.926;2023-02-08T14:35:56;21.27;;;13.23;;
39486;SDS011;25173;50.430;18.926;2023-02-08T14:45:52;23.30;;;13.45;;
39486;SDS011;25173;50.430;18.926;2023-02-08T14:48:54;21.90;;;14.60;;
39486;SDS011;25173;50.430;18.926;2023-02-08T14:51:56;20.88;;;13.43;;
39486;SDS011;25173;50.430;18.926;2023-02-08T14:55:46;20.20;;;12.20;;
39486;SDS011;25173;50.430;18.926;2023-02-08T14:58:31;23.90;;;14.13;;
39486;SDS011;25173;50.430;18.926;2023-02-08T15:01:41;23.77;;;13.30;;
39486;SDS011;25173;50.430;18.926;2023-02-08T15:04:45;22.77;;;15.00;;
39486;SDS011;25173;50.430;18.926;2023-02-08T15:07:48;40.35;;;22.80;;
39486;SDS011;25173;50.430;18.926;2023-02-08T15:10:51;26.50;;;17.75;;
39486;SDS011;25173;50.430;18.926;2023-02-08T15:13:53;42.38;;;27.42;;
39486;SDS011;25173;50.430;18.926;2023-02-08T15:16:56;32.20;;;21.52;;
39486;SDS011;25173;50.430;18.926;2023-02-08T15:19:57;46.53;;;32.05;;
39486;SDS011;25173;50.430;18.926;2023-02-08T15:23:19;31.77;;;19.48;;
39486;SDS011;25173;50.430;18.926;2023-02-08T15:26:23;41.05;;;21.85;;
39486;SDS011;25173;50.430;18.926;2023-02-08T15:29:25;49.88;;;37.65;;
39486;SDS011;25173;50.430;18.926;2023-02-08T15:32:27;70.72;;;52.55;;
39486;SDS011;25173;50.430;18.926;2023-02-08T15:35:30;55.10;;;43.65;;
39486;SDS011;25173;50.430;18.926;2023-02-08T15:38:35;42.53;;;30.27;;
39486;SDS011;25173;50.430;18.926;2023-02-08T15:41:37;34.47;;;21.33;;
39486;SDS011;25173;50.430;18.926;2023-02-08T15:44:40;34.38;;;19.83;;
39486;SDS011;25173;50.430;18.926;2023-02-08T15:47:43;31.52;;;19.60;;
39486;SDS011;25173;50.430;18.926;2023-02-08T15:50:44;30.13;;;18.80;;
39486;SDS011;25173;50.430;18.926;2023-02-08T15:53:45;31.30;;;18.98;;
39486;SDS011;25173;50.430;18.926;2023-02-08T15:56:49;39.25;;;21.55;;
39486;SDS011;25173;50.430;18.926;2023-02-08T15:59:54;50.58;;;29.00;;
39486;SDS011;25173;50.430;18.926;2023-02-08T16:02:56;51.60;;;28.70;;
39486;SDS011;25173;50.430;18.926;2023-02-08T16:06:01;50.20;;;28.83;;
39486;SDS011;25173;50.430;18.926;2023-02-08T16:09:05;57.42;;;35.20;;
39486;SDS011;25173;50.430;18.926;2023-02-08T16:12:11;71.13;;;41.38;;
39486;SDS011;25173;50.430;18.926;2023-02-08T16:15:36;70.13;;;36.67;;
39486;SDS011;25173;50.430;18.926;2023-02-08T16:18:38;67.88;;;34.97;;
39486;SDS011;25173;50.430;18.926;2023-02-08T16:21:40;74.35;;;36.80;;
39486;SDS011;25173;50.430;18.926;2023-02-08T16:24:41;65.70;;;33.30;;
39486;SDS011;25173;50.430;18.926;2023-02-08T16:27:45;55.67;;;31.15;;
39486;SDS011;25173;50.430;18.926;2023-02-08T16:30:47;52.47;;;28.85;;
39486;SDS011;25173;50.430;18.926;2023-02-08T16:33:54;48.58;;;26.85;;
39486;SDS011;25173;50.430;18.926;2023-02-08T16:36:57;44.97;;;26.00;;
39486;SDS011;25173;50.430;18.926;2023-02-08T16:40:01;43.90;;;24.60;;
39486;SDS011;25173;50.430;18.926;2023-02-08T16:43:35;48.70;;;27.13;;
39486;SDS011;25173;50.430;18.926;2023-02-08T16:46:43;85.35;;;43.60;;
39486;SDS011;25173;50.430;18.926;2023-02-08T16:49:44;160.70;;;73.88;;
39486;SDS011;25173;50.430;18.926;2023-02-08T16:52:52;164.23;;;78.03;;
39486;SDS011;25173;50.430;18.926;2023-02-08T16:55:55;186.88;;;87.68;;
39486;SDS011;25173;50.430;18.926;2023-02-08T16:58:57;78.00;;;41.92;;
39486;SDS011;25173;50.430;18.926;2023-02-08T17:01:57;77.82;;;37.28;;
39486;SDS011;25173;50.430;18.926;2023-02-08T17:04:58;166.85;;;83.18;;
39486;SDS011;25173;50.430;18.926;2023-02-08T17:07:58;162.55;;;78.63;;
39486;SDS011;25173;50.430;18.926;2023-02-08T17:10:59;237.95;;;119.25;;
39486;SDS011;25173;50.430;18.926;2023-02-08T17:14:00;246.68;;;124.25;;
39486;SDS011;25173;50.430;18.926;2023-02-08T17:17:01;246.80;;;126.70;;
39486;SDS011;25173;50.430;18.926;2023-02-08T17:20:01;263.05;;;135.18;;
39486;SDS011;25173;50.430;18.926;2023-02-08T17:23:04;312.05;;;158.07;;
39486;SDS011;25173;50.430;18.926;2023-02-08T17:26:08;311.88;;;158.35;;
39486;SDS011;25173;50.430;18.926;2023-02-08T17:29:13;312.58;;;161.02;;
39486;SDS011;25173;50.430;18.926;2023-02-08T17:32:14;311.02;;;157.50;;
39486;SDS011;25173;50.430;18.926;2023-02-08T17:35:15;313.42;;;160.48;;
39486;SDS011;25173;50.430;18.926;2023-02-08T17:38:17;300.48;;;154.65;;
39486;SDS011;25173;50.430;18.926;2023-02-08T17:41:19;347.80;;;185.10;;
39486;SDS011;25173;50.430;18.926;2023-02-08T17:44:20;397.30;;;200.80;;
39486;SDS011;25173;50.430;18.926;2023-02-08T17:47:23;415.52;;;222.57;;
39486;SDS011;25173;50.430;18.926;2023-02-08T17:50:27;421.65;;;209.07;;
39486;SDS011;25173;50.430;18.926;2023-02-08T17:53:28;391.40;;;211.10;;
39486;SDS011;25173;50.430;18.926;2023-02-08T17:56:29;469.08;;;236.55;;
39486;SDS011;25173;50.430;18.926;2023-02-08T17:59:37;498.33;;;225.35;;
39486;SDS011;25173;50.430;18.926;2023-02-08T18:02:46;527.40;;;233.82;;
39486;SDS011;25173;50.430;18.926;2023-02-08T18:05:53;491.48;;;233.48;;
39486;SDS011;25173;50.430;18.926;2023-02-08T18:08:56;479.73;;;234.77;;
39486;SDS011;25173;50.430;18.926;2023-02-08T18:11:57;471.95;;;239.35;;
39486;SDS011;25173;50.430;18.926;2023-02-08T18:14:58;490.35;;;256.83;;
39486;SDS011;25173;50.430;18.926;2023-02-08T18:17:58;472.20;;;239.23;;
39486;SDS011;25173;50.430;18.926;2023-02-08T18:20:59;523.58;;;247.77;;
39486;SDS011;25173;50.430;18.926;2023-02-08T18:24:00;560.13;;;267.95;;
39486;SDS011;25173;50.430;18.926;2023-02-08T18:27:04;555.63;;;273.92;;
39486;SDS011;25173;50.430;18.926;2023-02-08T18:30:05;575.00;;;276.23;;
39486;SDS011;25173;50.430;18.926;2023-02-08T18:33:07;991.97;;;564.90;;
39486;SDS011;25173;50.430;18.926;2023-02-08T18:36:10;663.10;;;346.63;;
39486;SDS011;25173;50.430;18.926;2023-02-08T18:39:12;716.47;;;375.63;;
39486;SDS011;25173;50.430;18.926;2023-02-08T18:42:14;665.53;;;355.55;;
39486;SDS011;25173;50.430;18.926;2023-02-08T18:45:14;600.85;;;312.35;;
39486;SDS011;25173;50.430;18.926;2023-02-08T18:48:15;575.80;;;291.65;;
39486;SDS011;25173;50.430;18.926;2023-02-08T18:51:16;455.77;;;225.57;;
39486;SDS011;25173;50.430;18.926;2023-02-08T18:54:19;461.55;;;232.85;;
39486;SDS011;25173;50.430;18.926;2023-02-08T18:57:21;430.50;;;216.98;;
39486;SDS011;25173;50.430;18.926;2023-02-08T19:00:22;460.42;;;230.88;;
39486;SDS011;25173;50.430;18.926;2023-02-08T19:03:23;387.52;;;201.63;;
39486;SDS011;25173;50.430;18.926;2023-02-08T19:06:24;417.73;;;210.50;;
39486;SDS011;25173;50.430;18.926;2023-02-08T19:09:26;358.77;;;182.10;;
39486;SDS011;25173;50.430;18.926;2023-02-08T19:12:27;453.75;;;230.45;;
39486;SDS011;25173;50.430;18.926;2023-02-08T19:15:27;407.00;;;210.80;;
39486;SDS011;25173;50.430;18.926;2023-02-08T19:18:29;413.45;;;214.57;;
39486;SDS011;25173;50.430;18.926;2023-02-08T19:21:30;404.30;;;209.93;;
39486;SDS011;25173;50.430;18.926;2023-02-08T19:24:32;274.00;;;133.63;;
39486;SDS011;25173;50.430;18.926;2023-02-08T19:27:33;308.08;;;150.07;;